Time;durP1;ratioP1;P1;durP2;ratioP2;P2;SDS_P1;SDS_P2;PMS_P1;PMS_P2;Temp;Humidity;BMP_temperature;BMP_pressure;BME280_temperature;BME280_humidity;BME280_pressure;Samples;Min_cycle;Max_cycle;Signal;HPM_P1;HPM_P2
2021/08/23 00:00:33;;;;;;;7.15;6.35;;;;;;;25.97;45.44;101886.25;1722636;82;21026;-49
2021/08/23 00:03:01;;;;;;;6.45;5.37;;;;;;;25.94;45.47;101883.80;1721773;82;21152;-51
2021/08/23 00:05:27;;;;;;;9.20;6.00;;;;;;;25.92;45.49;101885.72;1721162;82;21092;-49
2021/08/23 00:07:54;;;;;;;6.95;5.85;;;;;;;25.91;45.97;101884.00;1723406;82;21522;-48
2021/08/23 00:10:22;;;;;;;9.23;5.58;;;;;;;25.91;45.97;101884.00;1721015;82;21033;-50
2021/08/23 00:12:50;;;;;;;6.30;5.50;;;;;;;25.90;46.15;101879.17;1717318;82;21618;-51
2021/08/23 00:15:19;;;;;;;8.75;5.65;;;;;;;25.90;46.25;101879.64;1722931;82;21538;-47
2021/08/23 00:17:47;;;;;;;8.35;5.50;;;;;;;25.88;46.41;101872.23;1715611;82;21017;-48
2021/08/23 00:22:48;;;;;;;7.40;5.95;;;;;;;25.88;46.53;101881.56;1685641;84;21144;-48
2021/08/23 00:25:15;;;;;;;9.43;5.58;;;;;;;25.90;46.57;101879.64;1638024;86;21031;-47
2021/08/23 00:27:42;;;;;;;6.12;5.08;;;;;;;25.90;46.24;101882.31;1666966;85;21044;-47
2021/08/23 00:30:11;;;;;;;10.55;5.35;;;;;;;25.89;46.07;101882.78;1659406;85;21140;-48
2021/08/23 00:32:40;;;;;;;8.00;5.15;;;;;;;25.89;45.91;101880.58;1647353;86;21065;-46
2021/08/23 00:35:09;;;;;;;8.98;5.42;;;;;;;25.90;45.86;101880.98;1657512;86;21044;-50
2021/08/23 00:37:37;;;;;;;5.85;4.83;;;;;;;25.90;45.86;101880.98;1664493;84;21568;-49
2021/08/23 00:40:06;;;;;;;13.18;6.12;;;;;;;25.91;46.11;101881.33;1675514;85;21589;-47
2021/08/23 00:42:32;;;;;;;5.85;5.25;;;;;;;25.90;46.18;101879.64;1631019;87;21572;-50
2021/08/23 00:45:01;;;;;;;8.65;5.12;;;;;;;25.90;46.01;101875.64;1615677;87;21037;-49
2021/08/23 00:47:28;;;;;;;7.85;4.85;;;;;;;25.90;46.01;101875.64;1673510;84;21042;-49
2021/08/23 00:49:55;;;;;;;6.55;4.70;;;;;;;25.87;46.09;101878.03;1683195;84;21131;-47
2021/08/23 00:52:23;;;;;;;8.30;5.05;;;;;;;25.84;46.14;101873.75;1683024;85;21026;-48
2021/08/23 00:54:49;;;;;;;7.62;5.53;;;;;;;25.84;46.10;101876.41;1651990;86;21123;-47
2021/08/23 00:57:16;;;;;;;9.53;5.50;;;;;;;25.84;46.15;101874.25;1653187;86;21091;-48
2021/08/23 00:59:44;;;;;;;6.10;5.40;;;;;;;25.81;46.07;101875.31;1659375;85;21062;-48
2021/08/23 01:02:33;;;;;;;7.87;5.60;;;;;;;25.79;45.98;101868.36;1656934;86;21026;-47
2021/08/23 01:05:23;;;;;;;11.00;5.30;;;;;;;25.76;46.03;101868.09;1657188;85;21081;-46
2021/08/23 01:08:09;;;;;;;7.12;5.37;;;;;;;25.76;45.94;101861.92;1629306;86;21057;-49
2021/08/23 01:10:42;;;;;;;6.37;5.15;;;;;;;25.75;46.21;101870.86;1639409;86;21132;-47
2021/08/23 01:13:09;;;;;;;7.72;4.92;;;;;;;25.73;46.31;101869.64;1631859;86;21057;-49
2021/08/23 01:15:36;;;;;;;7.67;5.15;;;;;;;25.72;46.35;101865.25;1609478;88;21041;-51
2021/08/23 01:18:03;;;;;;;6.83;5.05;;;;;;;25.70;46.47;101869.83;1598304;88;21048;-50
2021/08/23 01:20:32;;;;;;;7.80;5.22;;;;;;;25.69;46.65;101869.47;1617688;87;21024;-47
2021/08/23 01:22:59;;;;;;;8.40;5.28;;;;;;;25.70;46.56;101871.17;1609631;87;21010;-47
2021/08/23 01:25:30;;;;;;;6.45;4.50;;;;;;;25.70;46.70;101865.83;1586993;89;21065;-47
2021/08/23 01:28:22;;;;;;;7.25;5.00;;;;;;;25.70;46.70;101865.83;1577393;89;21135;-49
2021/08/23 01:31:01;;;;;;;8.90;4.62;;;;;;;25.69;46.82;101876.14;1578012;90;21188;-48
2021/08/23 01:33:28;;;;;;;5.75;5.00;;;;;;;25.69;46.71;101874.80;1633421;87;21533;-49
2021/08/23 01:35:55;;;;;;;8.25;5.17;;;;;;;25.66;46.75;101875.00;1611748;87;21155;-47
2021/08/23 01:38:22;;;;;;;6.25;4.72;;;;;;;25.66;46.76;101879.47;1603222;87;21063;-47
2021/08/23 01:41:02;;;;;;;9.53;5.50;;;;;;;25.64;46.90;101879.58;1609753;88;21084;-49
2021/08/23 01:43:30;;;;;;;6.40;4.58;;;;;;;25.64;46.90;101879.58;1510900;93;21625;-47
2021/08/23 01:45:57;;;;;;;11.95;5.03;;;;;;;25.58;47.14;101887.98;1502979;93;21177;-50
2021/08/23 01:48:23;;;;;;;6.87;4.60;;;;;;;25.58;47.14;101887.98;1480849;96;21145;-48
2021/08/23 01:50:50;;;;;;;10.15;5.80;;;;;;;25.55;47.02;101878.88;1483832;94;21112;-49
2021/08/23 01:53:18;;;;;;;6.53;4.80;;;;;;;25.53;47.02;101875.42;1502995;95;21191;-50
2021/08/23 01:55:44;;;;;;;8.53;4.50;;;;;;;25.44;47.10;101880.05;1501111;94;21108;-50
2021/08/23 01:58:11;;;;;;;7.62;4.72;;;;;;;25.44;47.10;101880.05;1491118;95;21067;-47
2021/08/23 02:00:38;;;;;;;6.65;4.67;;;;;;;25.40;47.29;101877.18;1510407;95;21106;-50
2021/08/23 02:03:04;;;;;;;9.35;4.60;;;;;;;25.39;47.40;101882.12;1544237;90;21048;-51
2021/08/23 02:05:31;;;;;;;6.58;4.75;;;;;;;25.38;47.35;101876.89;1570588;89;21125;-50
2021/08/23 02:07:58;;;;;;;7.20;4.72;;;;;;;25.39;47.37;101879.45;1574902;88;21478;-50
2021/08/23 02:10:25;;;;;;;9.10;4.67;;;;;;;25.36;47.37;101874.34;1604753;87;21527;-47
2021/08/23 02:12:52;;;;;;;6.83;4.90;;;;;;;25.36;47.37;101874.34;1557442;90;21164;-50
2021/08/23 02:15:19;;;;;;;8.88;4.85;;;;;;;25.37;47.38;101877.87;1560884;90;21084;-47
2021/08/23 02:17:46;;;;;;;8.23;5.62;;;;;;;25.31;47.25;101865.78;1552242;90;21125;-47
2021/08/23 02:20:13;;;;;;;9.75;5.22;;;;;;;25.31;47.25;101865.78;1555789;89;21113;-50
2021/08/23 02:22:41;;;;;;;7.85;5.25;;;;;;;25.31;47.14;101872.44;1564024;90;21067;-50
2021/08/23 02:25:10;;;;;;;9.40;5.50;;;;;;;25.26;46.98;101868.38;1596977;87;21087;-48
2021/08/23 02:27:36;;;;;;;8.80;4.90;;;;;;;25.26;46.98;101868.38;1607143;88;21559;-47
2021/08/23 02:30:05;;;;;;;8.55;5.12;;;;;;;25.25;47.12;101868.84;1565428;89;21124;-49
2021/08/23 02:32:33;;;;;;;7.40;4.90;;;;;;;25.25;47.19;101866.19;1570008;88;21533;-48
2021/08/23 02:35:00;;;;;;;5.67;4.53;;;;;;;25.24;47.25;101875.15;1572096;88;21110;-47
2021/08/23 02:37:27;;;;;;;5.28;4.47;;;;;;;25.23;47.42;101877.42;1609817;87;21129;-49
2021/08/23 02:39:53;;;;;;;8.43;4.47;;;;;;;25.22;47.61;101875.73;1610818;84;21503;-49
2021/08/23 02:42:20;;;;;;;10.70;5.55;;;;;;;25.22;47.78;101876.20;1679740;84;21084;-48
2021/08/23 02:44:47;;;;;;;10.35;4.90;;;;;;;25.18;47.87;101882.20;1684344;83;21529;-47
2021/08/23 02:47:14;;;;;;;6.47;4.90;;;;;;;25.15;48.01;101883.72;1684683;83;21105;-49
2021/08/23 02:49:42;;;;;;;13.53;5.10;;;;;;;25.14;47.86;101886.49;1674323;84;21081;-49
2021/08/23 02:52:09;;;;;;;7.85;4.60;;;;;;;25.13;47.84;101882.97;1710475;82;20985;-49
2021/08/23 02:54:37;;;;;;;6.17;4.40;;;;;;;25.14;47.74;101887.36;1721969;82;21058;-49
2021/08/23 02:57:05;;;;;;;8.88;4.60;;;;;;;25.14;47.53;101892.69;1721819;82;21570;-47
2021/08/23 02:59:31;;;;;;;8.30;5.03;;;;;;;25.11;47.30;101890.20;1724929;82;21015;-47
2021/08/23 03:01:58;;;;;;;7.75;4.53;;;;;;;25.09;47.17;101892.11;1723902;82;21081;-47
2021/08/23 03:04:25;;;;;;;5.72;4.40;;;;;;;25.07;47.09;101896.68;1726905;82;21063;-49
2021/08/23 03:06:51;;;;;;;9.55;4.00;;;;;;;25.04;47.03;101896.86;1723114;82;20990;-49
2021/08/23 03:09:18;;;;;;;5.67;3.92;;;;;;;25.02;47.05;101896.11;1723479;83;21609;-49
2021/08/23 03:11:44;;;;;;;6.00;5.10;;;;;;;25.01;46.91;101901.07;1712602;82;21019;-49
2021/08/23 03:14:11;;;;;;;6.85;4.62;;;;;;;25.00;47.00;101900.67;1723508;82;21568;-46
2021/08/23 03:16:38;;;;;;;5.58;4.03;;;;;;;24.96;47.12;101904.02;1724049;82;21049;-48
2021/08/23 03:19:05;;;;;;;7.72;4.85;;;;;;;24.96;47.06;101905.34;1724559;82;21081;-48
2021/08/23 03:21:31;;;;;;;10.38;4.15;;;;;;;24.93;46.95;101895.38;1724372;82;21066;-48
2021/08/23 03:24:09;;;;;;;8.10;4.72;;;;;;;24.91;46.70;101897.28;1723043;82;26754;-48
2021/08/23 03:26:36;;;;;;;12.33;5.62;;;;;;;24.89;46.64;101901.86;1723872;82;21046;-46
2021/08/23 03:29:02;;;;;;;6.75;4.83;;;;;;;24.87;46.02;101905.09;1720281;82;21097;-48
2021/08/23 03:31:31;;;;;;;9.40;4.85;;;;;;;24.85;45.93;101912.32;1724557;82;21065;-52
2021/08/23 03:33:58;;;;;;;12.90;5.25;;;;;;;24.85;45.93;101912.32;1721851;82;21050;-48
2021/08/23 03:36:25;;;;;;;5.92;4.72;;;;;;;24.83;46.17;101912.89;1723705;82;21117;-50
2021/08/23 03:38:52;;;;;;;11.10;5.28;;;;;;;24.78;46.12;101909.18;1722995;82;21712;-50
2021/08/23 03:41:19;;;;;;;7.78;5.12;;;;;;;24.78;46.12;101909.18;1719595;82;21014;-49
2021/08/23 03:43:47;;;;;;;8.20;5.03;;;;;;;24.75;46.10;101911.19;1716966;82;21152;-46
2021/08/23 03:46:13;;;;;;;11.68;5.30;;;;;;;24.73;46.24;101915.72;1727952;82;20979;-49
2021/08/23 03:48:40;;;;;;;7.47;5.33;;;;;;;24.69;46.37;101914.20;1708828;83;21532;-50
2021/08/23 03:51:07;;;;;;;13.48;5.90;;;;;;;24.62;46.92;101910.20;1725907;82;21033;-50
2021/08/23 03:53:34;;;;;;;11.60;5.05;;;;;;;24.59;47.32;101922.34;1726529;82;21085;-49
2021/08/23 03:56:01;;;;;;;12.23;5.22;;;;;;;24.59;47.32;101922.34;1720900;82;21530;-47
2021/08/23 03:58:28;;;;;;;7.12;5.03;;;;;;;24.56;47.74;101921.22;1722357;82;21086;-47
2021/08/23 04:00:58;;;;;;;7.78;5.62;;;;;;;24.55;48.28;101923.48;1721484;82;21058;-51
2021/08/23 04:03:23;;;;;;;16.17;6.10;;;;;;;24.54;48.66;101922.66;1722686;82;20967;-50
2021/08/23 04:05:50;;;;;;;8.13;5.12;;;;;;;24.55;48.82;101922.16;1720759;82;21550;-51
2021/08/23 04:08:17;;;;;;;7.87;5.50;;;;;;;24.56;48.58;101920.75;1716361;82;21054;-49
2021/08/23 04:10:47;;;;;;;10.85;5.33;;;;;;;24.58;48.66;101924.64;1720575;82;21066;-50
2021/08/23 04:13:15;;;;;;;7.45;4.78;;;;;;;24.62;48.54;101919.51;1721595;82;20994;-49
2021/08/23 04:15:47;;;;;;;8.53;5.28;;;;;;;24.66;48.49;101921.03;1720358;82;21066;-47
2021/08/23 04:18:14;;;;;;;40.52;8.35;;;;;;;24.71;48.57;101918.45;1715305;82;21041;-50
2021/08/23 04:20:41;;;;;;;12.28;5.62;;;;;;;24.71;48.57;101918.45;1725264;82;21022;-49
2021/08/23 04:23:08;;;;;;;16.97;6.60;;;;;;;24.73;48.45;101917.05;1722668;82;21499;-49
2021/08/23 04:25:35;;;;;;;240.15;23.45;;;;;;;24.73;48.13;101927.23;1716499;82;21052;-53
2021/08/23 04:28:02;;;;;;;17.25;6.70;;;;;;;24.76;48.21;101926.19;1722103;82;21097;-49
2021/08/23 04:30:28;;;;;;;13.05;5.00;;;;;;;24.77;48.44;101925.26;1721550;82;21180;-50
2021/08/23 04:32:55;;;;;;;10.00;5.40;;;;;;;24.78;48.49;101924.29;1718811;82;21050;-47
2021/08/23 04:35:22;;;;;;;8.78;4.75;;;;;;;24.79;48.43;101920.69;1723064;82;21023;-48
2021/08/23 04:37:48;;;;;;;10.10;5.25;;;;;;;24.79;48.32;101918.86;1721872;82;21054;-50
2021/08/23 04:40:15;;;;;;;10.15;4.95;;;;;;;24.81;48.20;101924.11;1721623;82;21034;-53
2021/08/23 04:42:42;;;;;;;11.48;5.40;;;;;;;24.83;48.22;101919.55;1720161;82;21039;-47
2021/08/23 04:45:10;;;;;;;7.90;4.58;;;;;;;24.87;48.21;101917.07;1723284;82;21085;-49
2021/08/23 04:47:37;;;;;;;8.53;4.72;;;;;;;24.91;48.15;101917.25;1722210;82;21507;-48
2021/08/23 04:50:06;;;;;;;7.20;4.62;;;;;;;24.96;48.15;101917.80;1725468;82;21096;-45
2021/08/23 04:52:43;;;;;;;6.22;4.78;;;;;;;25.00;48.11;101913.98;1726106;82;21021;-49
2021/08/23 04:55:11;;;;;;;9.08;4.45;;;;;;;25.04;48.03;101912.84;1658912;84;21005;-53
2021/08/23 04:57:38;;;;;;;8.23;4.92;;;;;;;25.08;47.99;101913.02;1646727;86;21060;-50
2021/08/23 05:00:09;;;;;;;9.05;4.45;;;;;;;25.11;48.03;101914.64;1609329;88;21459;-46
2021/08/23 05:02:35;;;;;;;8.15;4.30;;;;;;;25.15;47.85;101910.36;1639595;86;21082;-49
2021/08/23 05:05:03;;;;;;;6.95;4.30;;;;;;;25.18;47.86;101913.31;1637440;86;21162;-47
2021/08/23 05:07:30;;;;;;;6.45;4.00;;;;;;;25.21;47.86;101914.43;1639508;86;21564;-46
2021/08/23 05:09:56;;;;;;;8.68;4.10;;;;;;;25.25;47.86;101904.81;1637582;86;21106;-47
2021/08/23 05:12:23;;;;;;;6.53;4.08;;;;;;;25.29;47.79;101907.66;1642931;86;21704;-49
2021/08/23 05:14:51;;;;;;;7.42;3.98;;;;;;;25.39;47.92;101904.77;1628348;86;21524;-48
2021/08/23 05:17:19;;;;;;;8.00;4.22;;;;;;;25.39;47.92;101904.77;1637825;87;21532;-46
2021/08/23 05:19:46;;;;;;;6.05;4.62;;;;;;;25.48;48.03;101905.55;1633200;87;21080;-46
2021/08/23 05:22:12;;;;;;;8.20;5.08;;;;;;;25.48;48.03;101905.55;1639577;87;21219;-50
2021/08/23 05:24:39;;;;;;;7.30;4.72;;;;;;;25.54;47.71;101906.47;1631939;86;21028;-48
2021/08/23 05:27:05;;;;;;;5.80;3.92;;;;;;;25.54;47.71;101906.47;1629555;86;21126;-47
2021/08/23 05:29:32;;;;;;;8.93;4.10;;;;;;;25.64;47.22;101906.23;1637760;86;21044;-48
2021/08/23 05:31:59;;;;;;;6.83;3.98;;;;;;;25.64;47.22;101906.23;1631251;86;21551;-46
2021/08/23 05:34:26;;;;;;;7.10;3.75;;;;;;;25.67;47.04;101908.71;1630440;86;21043;-53
2021/08/23 05:36:52;;;;;;;6.92;3.17;;;;;;;25.75;46.47;101913.05;1629738;86;21039;-50
2021/08/23 05:39:20;;;;;;;5.85;3.20;;;;;;;25.76;46.45;101908.58;1630255;86;21087;-47
2021/08/23 05:41:47;;;;;;;3.65;3.27;;;;;;;25.76;46.45;101908.58;1635044;86;21111;-48
2021/08/23 05:44:13;;;;;;;7.47;3.37;;;;;;;25.80;46.39;101909.58;1643475;86;21083;-51
2021/08/23 05:46:40;;;;;;;6.08;4.08;;;;;;;25.85;46.30;101911.95;1633488;86;21104;-47
2021/08/23 05:49:07;;;;;;;10.82;3.60;;;;;;;25.89;46.48;101907.25;1639654;85;21104;-49
2021/08/23 05:51:33;;;;;;;10.53;4.58;;;;;;;25.98;46.38;101908.84;1661699;84;21104;-48
2021/08/23 05:54:00;;;;;;;8.65;3.77;;;;;;;25.98;46.38;101908.84;1662765;85;21032;-51
2021/08/23 05:56:26;;;;;;;7.53;3.72;;;;;;;26.07;46.47;101911.36;1663280;85;21041;-52
2021/08/23 05:58:53;;;;;;;3.85;2.72;;;;;;;26.07;46.47;101911.36;1662871;85;21212;-47
2021/08/23 06:01:20;;;;;;;5.53;3.50;;;;;;;26.11;46.05;101913.73;1664267;84;21075;-48
2021/08/23 06:03:47;;;;;;;8.95;3.95;;;;;;;26.17;46.10;101917.30;1679038;84;21082;-49
2021/08/23 06:06:14;;;;;;;3.80;3.30;;;;;;;26.26;46.12;101917.16;1679925;84;21052;-47
2021/08/23 06:08:43;;;;;;;8.18;3.90;;;;;;;26.38;45.81;101921.17;1679270;84;21449;-49
2021/08/23 06:11:10;;;;;;;9.80;3.62;;;;;;;26.48;45.68;101916.07;1665025;85;21048;-48
2021/08/23 06:13:37;;;;;;;8.85;4.42;;;;;;;26.58;45.17;101915.80;1666472;85;21496;-47
2021/08/23 06:16:04;;;;;;;5.33;3.62;;;;;;;26.68;45.40;101922.19;1665579;84;21056;-47
2021/08/23 06:18:31;;;;;;;5.12;3.00;;;;;;;26.76;45.25;101919.86;1663138;85;21532;-49
2021/08/23 06:21:00;;;;;;;3.52;2.65;;;;;;;26.86;45.17;101927.59;1663216;85;21088;-50
2021/08/23 06:23:27;;;;;;;5.67;3.33;;;;;;;27.01;44.64;101926.51;1662685;84;21041;-48
2021/08/23 06:25:54;;;;;;;4.60;2.90;;;;;;;27.14;43.97;101915.28;1663005;84;21540;-51
2021/08/23 06:28:20;;;;;;;9.10;3.75;;;;;;;27.25;43.56;101919.85;1673960;85;21020;-47
2021/08/23 06:30:48;;;;;;;3.10;2.80;;;;;;;27.31;43.59;101917.59;1662761;85;20995;-47
2021/08/23 06:33:14;;;;;;;5.47;2.72;;;;;;;27.36;43.39;101915.48;1668806;85;21016;-46
2021/08/23 06:35:41;;;;;;;5.40;2.55;;;;;;;27.42;43.14;101915.97;1667849;84;21596;-47
2021/08/23 06:38:08;;;;;;;8.83;2.90;;;;;;;27.49;42.68;101914.56;1672088;85;21101;-49
2021/08/23 06:40:36;;;;;;;9.83;3.80;;;;;;;27.57;42.61;101915.71;1670381;85;21076;-49
2021/08/23 06:43:04;;;;;;;6.67;2.42;;;;;;;27.67;42.21;101915.86;1668991;85;21074;-48
2021/08/23 06:45:31;;;;;;;3.20;2.20;;;;;;;27.75;42.07;101916.14;1672723;84;21025;-47
2021/08/23 06:47:59;;;;;;;7.17;2.67;;;;;;;27.80;41.42;101918.00;1674963;85;21064;-53
2021/08/23 06:50:27;;;;;;;3.90;2.22;;;;;;;27.86;41.36;101918.36;1668203;85;21103;-49
2021/08/23 06:52:53;;;;;;;2.72;2.27;;;;;;;27.92;41.33;101918.41;1673569;85;21141;-50
2021/08/23 06:55:20;;;;;;;7.12;2.22;;;;;;;27.98;40.90;101920.64;1675352;85;21020;-48
2021/08/23 06:57:47;;;;;;;4.25;2.02;;;;;;;28.02;40.65;101915.42;1676059;84;21539;-52
2021/08/23 07:00:14;;;;;;;6.90;4.95;;;;;;;28.05;40.44;101920.52;1676286;85;21071;-48
2021/08/23 07:02:42;;;;;;;4.55;2.77;;;;;;;28.06;40.41;101919.56;1722696;82;21005;-49
2021/08/23 07:05:10;;;;;;;10.08;2.40;;;;;;;28.07;40.68;101922.59;1730945;82;21092;-49
2021/08/23 07:07:36;;;;;;;6.33;2.17;;;;;;;28.05;40.13;101920.05;1728252;82;21062;-48
2021/08/23 07:10:04;;;;;;;5.78;2.37;;;;;;;28.05;40.42;101920.52;1732506;82;21197;-50
2021/08/23 07:12:33;;;;;;;2.22;2.02;;;;;;;28.02;40.47;101920.30;1688655;83;21006;-50
2021/08/23 07:15:02;;;;;;;4.65;2.30;;;;;;;28.02;40.54;101922.11;1693819;83;21014;-51
2021/08/23 07:17:30;;;;;;;8.28;2.52;;;;;;;28.02;40.12;101922.98;1727803;82;21026;-48
2021/08/23 07:19:57;;;;;;;6.90;2.30;;;;;;;28.03;40.36;101917.11;1725461;82;21038;-51
2021/08/23 07:22:23;;;;;;;4.50;2.17;;;;;;;28.04;39.89;101918.36;1724700;82;21061;-48
2021/08/23 07:24:50;;;;;;;5.60;1.67;;;;;;;28.07;39.66;101919.92;1732760;82;21029;-46
2021/08/23 07:27:17;;;;;;;3.62;1.90;;;;;;;28.08;39.76;101916.29;1731227;82;20998;-50
2021/08/23 07:29:45;;;;;;;11.20;3.17;;;;;;;28.08;39.45;101917.63;1731459;82;21026;-50
2021/08/23 07:32:11;;;;;;;4.17;2.08;;;;;;;28.10;39.78;101911.67;1730772;82;20990;-48
2021/08/23 07:34:38;;;;;;;4.00;2.10;;;;;;;28.12;39.89;101912.41;1735112;82;21740;-50
2021/08/23 07:37:05;;;;;;;5.22;1.98;;;;;;;28.15;39.95;101917.54;1738224;81;21014;-47
2021/08/23 07:39:32;;;;;;;4.47;2.45;;;;;;;28.19;39.56;101917.67;1725181;82;21042;-47
2021/08/23 07:41:59;;;;;;;2.83;2.00;;;;;;;28.20;39.61;101914.00;1727852;82;21006;-47
2021/08/23 07:44:27;;;;;;;2.37;1.67;;;;;;;28.23;39.80;101913.78;1729280;82;21909;-48
2021/08/23 07:46:53;;;;;;;4.75;2.60;;;;;;;28.25;39.41;101913.18;1733588;82;21050;-47
2021/08/23 07:49:21;;;;;;;3.27;1.87;;;;;;;28.26;39.65;101920.22;1730535;82;21042;-47
2021/08/23 07:51:48;;;;;;;2.15;1.72;;;;;;;28.27;39.09;101911.71;1732439;82;21438;-50
2021/08/23 07:54:18;;;;;;;4.87;1.80;;;;;;;28.28;39.11;101910.24;1726532;82;21506;-48
2021/08/23 07:56:45;;;;;;;2.17;1.65;;;;;;;28.31;39.80;101918.05;1732967;82;21086;-49
2021/08/23 07:59:13;;;;;;;2.67;1.95;;;;;;;28.32;38.93;101913.05;1731004;82;21030;-49
2021/08/23 08:01:39;;;;;;;5.08;2.08;;;;;;;28.34;39.04;101909.77;1688750;84;22486;-48
2021/08/23 08:04:07;;;;;;;5.95;2.30;;;;;;;28.36;38.84;101912.34;1690587;83;20994;-48
2021/08/23 08:06:34;;;;;;;4.17;1.60;;;;;;;28.35;39.07;101912.83;1690639;83;20987;-49
2021/08/23 08:09:00;;;;;;;2.45;1.67;;;;;;;28.35;39.25;101908.81;1688779;84;21471;-51
2021/08/23 08:11:27;;;;;;;3.30;1.65;;;;;;;28.36;39.24;101913.17;1684545;84;21086;-50
2021/08/23 08:13:55;;;;;;;2.85;1.87;;;;;;;28.38;39.13;101920.60;1687425;84;20988;-51
2021/08/23 08:16:23;;;;;;;2.52;1.72;;;;;;;28.40;39.02;101914.64;1685451;83;21057;-50
2021/08/23 08:18:54;;;;;;;2.55;1.62;;;;;;;28.45;38.85;101916.48;1678298;84;21056;-50
2021/08/23 08:21:22;;;;;;;3.05;1.95;;;;;;;28.51;39.00;101916.48;1684932;84;21055;-48
2021/08/23 08:23:53;;;;;;;2.47;1.70;;;;;;;28.55;38.87;101911.25;1662711;85;21504;-50
2021/08/23 08:26:18;;;;;;;3.10;2.00;;;;;;;28.60;38.65;101916.66;1666731;84;21090;-48
2021/08/23 08:28:45;;;;;;;1.60;1.50;;;;;;;28.64;38.78;101915.92;1670471;84;21143;-50
2021/08/23 08:31:11;;;;;;;1.92;1.50;;;;;;;28.66;38.35;101910.82;1669890;84;21552;-49
2021/08/23 08:33:38;;;;;;;2.47;1.77;;;;;;;28.70;37.58;101913.62;1672034;85;21492;-51
2021/08/23 08:36:05;;;;;;;3.87;1.82;;;;;;;28.75;37.83;101907.39;1686390;84;21001;-50
2021/08/23 08:38:32;;;;;;;2.02;1.57;;;;;;;28.78;37.93;101907.16;1668605;84;21756;-50
2021/08/23 08:40:59;;;;;;;2.17;1.57;;;;;;;28.82;37.03;101911.30;1695944;84;21083;-47
2021/08/23 08:43:27;;;;;;;3.42;2.00;;;;;;;28.85;36.23;101907.02;1674310;84;21545;-49
2021/08/23 08:45:55;;;;;;;2.33;1.95;;;;;;;28.86;36.62;101907.40;1669989;84;21016;-50
2021/08/23 08:48:22;;;;;;;2.92;1.95;;;;;;;28.88;36.41;101908.13;1673559;84;21199;-50
2021/08/23 08:50:50;;;;;;;2.90;1.47;;;;;;;28.92;36.84;101904.22;1663237;83;21059;-47
2021/08/23 08:53:17;;;;;;;2.55;2.15;;;;;;;28.95;36.44;101895.92;1676790;84;21027;-50
2021/08/23 08:55:43;;;;;;;3.25;1.55;;;;;;;28.98;36.58;101897.03;1682352;83;21614;-49
2021/08/23 08:58:10;;;;;;;10.78;2.50;;;;;;;29.02;36.09;101899.48;1679463;84;21083;-53
2021/08/23 09:00:40;;;;;;;12.93;2.58;;;;;;;29.05;36.17;101900.06;1671904;84;21009;-50
2021/08/23 09:03:09;;;;;;;6.05;2.27;;;;;;;29.10;35.44;101903.72;1676557;84;21059;-50
2021/08/23 09:05:43;;;;;;;7.42;2.40;;;;;;;29.13;34.99;101895.41;1678065;84;21042;-47
2021/08/23 09:08:10;;;;;;;8.25;1.70;;;;;;;29.16;35.12;101896.04;1677863;84;21635;-47
2021/08/23 09:10:42;;;;;;;2.08;1.50;;;;;;;29.21;34.75;101891.65;1669787;84;21064;-50
2021/08/23 09:13:12;;;;;;;2.90;1.55;;;;;;;29.24;34.97;101894.09;1678272;84;21020;-49
2021/08/23 09:15:56;;;;;;;;;;;;;;;29.24;34.08;101895.44;1673463;84;21155;-48
2021/08/23 09:18:27;;;;;;;2.72;1.80;;;;;;;29.22;34.35;101891.55;1732429;82;20115;-50
2021/08/23 09:21:07;;;;;;;3.05;1.85;;;;;;;29.24;34.74;101888.73;1728978;82;21589;-50
2021/08/23 09:23:42;;;;;;;5.28;2.17;;;;;;;29.23;35.49;101886.53;1684840;84;21090;-48
2021/08/23 09:26:14;;;;;;;2.62;2.12;;;;;;;29.26;35.48;101889.45;1674936;85;21036;-51
2021/08/23 09:28:43;;;;;;;4.05;1.70;;;;;;;29.29;35.37;101891.39;1685521;83;20986;-48
2021/08/23 09:31:12;;;;;;;6.50;1.75;;;;;;;29.32;35.13;101888.95;1682009;84;21087;-47
2021/08/23 09:33:46;;;;;;;3.87;1.70;;;;;;;29.36;35.00;101890.40;1671574;84;21487;-50
2021/08/23 09:36:19;;;;;;;5.47;1.40;;;;;;;29.40;35.36;101891.37;1653834;85;21076;-49
2021/08/23 09:39:05;;;;;;;5.12;1.77;;;;;;;29.44;35.37;101895.50;1651119;85;21041;-50
2021/08/23 09:41:33;;;;;;;9.10;1.98;;;;;;;29.51;34.93;101894.50;1690383;82;20995;-50
2021/08/23 09:44:06;;;;;;;11.55;2.80;;;;;;;29.56;35.03;101896.30;1665567;84;21050;-49
2021/08/23 09:46:35;;;;;;;2.95;2.40;;;;;;;29.58;34.87;101897.02;1671428;84;20993;-49
2021/08/23 09:49:05;;;;;;;6.83;2.90;;;;;;;29.64;34.89;101888.45;1658378;85;21530;-49
2021/08/23 09:51:39;;;;;;;6.03;1.82;;;;;;;29.68;34.79;101891.24;1689859;82;21121;-50
2021/08/23 09:54:16;;;;;;;1.55;1.45;;;;;;;29.73;34.13;101890.41;1703350;82;21463;-47
2021/08/23 09:56:46;;;;;;;7.85;2.10;;;;;;;29.78;33.54;101893.54;1706008;82;21585;-49
2021/08/23 09:59:16;;;;;;;3.90;1.60;;;;;;;29.84;33.44;101897.08;1645569;85;21029;-49
2021/08/23 10:01:47;;;;;;;2.83;1.40;;;;;;;29.86;33.49;101893.77;1704338;82;20991;-49
2021/08/23 10:04:14;;;;;;;4.20;1.57;;;;;;;29.88;33.49;101891.81;1671330;83;21053;-48
2021/08/23 10:06:44;;;;;;;3.15;1.30;;;;;;;29.91;33.55;101885.31;1640457;85;21000;-49
2021/08/23 10:09:13;;;;;;;2.27;1.42;;;;;;;29.93;33.10;101889.57;1665378;85;21122;-48
2021/08/23 10:11:40;;;;;;;3.75;1.37;;;;;;;29.95;32.52;101887.61;1629900;85;21081;-47
2021/08/23 10:14:07;;;;;;;2.98;1.20;;;;;;;29.98;33.28;101884.67;1653943;85;21567;-50
2021/08/23 10:19:07;;;;;;;4.08;1.17;;;;;;;29.96;32.55;101886.64;1552316;90;21236;-49
2021/08/23 10:21:34;;;;;;;2.75;1.55;;;;;;;29.97;33.07;101883.44;1532078;92;21555;-48
2021/08/23 10:24:01;;;;;;;3.02;1.45;;;;;;;29.94;33.13;101885.92;1573145;89;21068;-47
2021/08/23 10:26:40;;;;;;;3.33;1.30;;;;;;;29.94;32.31;101883.23;1600315;88;21018;-50
2021/08/23 10:29:08;;;;;;;1.72;1.10;;;;;;;29.94;32.48;101882.38;1587978;88;21165;-48
2021/08/23 10:31:37;;;;;;;4.03;1.72;;;;;;;29.92;32.21;101879.83;1588501;89;21030;-52
2021/08/23 10:34:18;;;;;;;2.37;1.47;;;;;;;29.92;32.68;101879.83;1581741;89;21053;-47
2021/08/23 10:36:48;;;;;;;2.55;1.60;;;;;;;29.92;33.17;101881.66;1573695;90;21143;-47
2021/08/23 10:39:20;;;;;;;3.12;1.45;;;;;;;29.94;33.73;101880.55;1568028;90;21149;-53
2021/08/23 10:41:48;;;;;;;2.95;1.55;;;;;;;29.96;33.43;101882.62;1586336;88;21103;-46
2021/08/23 10:44:33;;;;;;;9.20;2.12;;;;;;;30.00;32.92;101884.53;1600839;88;21087;-48
2021/08/23 10:47:10;;;;;;;3.12;1.30;;;;;;;30.04;32.37;101881.47;1594183;87;21142;-50
2021/08/23 10:49:46;;;;;;;3.85;1.40;;;;;;;30.08;31.93;101883.39;1512343;94;21211;-48
2021/08/23 10:52:17;;;;;;;3.55;1.75;;;;;;;30.14;32.00;101878.34;1458963;97;21090;-48
2021/08/23 10:54:49;;;;;;;3.50;1.32;;;;;;;30.17;32.21;101878.06;1478361;94;21112;-51
2021/08/23 10:57:22;;;;;;;2.87;1.40;;;;;;;30.21;31.19;101874.65;1488523;95;21116;-49
2021/08/23 10:59:52;;;;;;;2.42;1.25;;;;;;;30.24;30.90;101871.20;1484348;96;21048;-46
2021/08/23 11:02:34;;;;;;;2.92;1.35;;;;;;;30.28;30.85;101871.28;1418152;99;21163;-49
2021/08/23 11:05:10;;;;;;;2.27;1.40;;;;;;;30.31;31.22;101871.07;1398749;100;21161;-50
2021/08/23 11:07:38;;;;;;;1.45;1.35;;;;;;;30.32;30.00;101870.07;1393052;101;21112;-51
2021/08/23 11:10:12;;;;;;;3.83;1.77;;;;;;;30.32;29.79;101868.73;1392938;101;21195;-48
2021/08/23 11:12:54;;;;;;;2.05;1.32;;;;;;;30.32;30.03;101869.21;1395547;101;21140;-50
2021/08/23 11:15:30;;;;;;;1.75;1.40;;;;;;;30.32;29.56;101866.52;1400299;100;21151;-47
2021/08/23 11:18:16;;;;;;;2.40;2.02;;;;;;;30.34;29.84;101867.23;1403825;100;21125;-49
2021/08/23 11:20:48;;;;;;;5.05;2.52;;;;;;;30.34;30.25;101864.07;1343096;104;21749;-50
2021/08/23 11:23:25;;;;;;;4.70;1.65;;;;;;;30.34;30.17;101860.05;1388219;103;21636;-45
2021/08/23 11:25:54;;;;;;;2.25;1.50;;;;;;;30.34;29.77;101854.67;1373367;103;21153;-49
2021/08/23 11:28:26;;;;;;;5.67;3.37;;;;;;;30.31;30.13;101857.64;1381876;103;21323;-47
2021/08/23 11:30:54;;;;;;;18.98;14.45;;;;;;;30.28;29.78;101852.49;1396668;102;21081;-47
2021/08/23 11:33:28;;;;;;;10.75;7.55;;;;;;;30.28;30.38;101855.17;1408588;100;21341;-48
2021/08/23 11:35:55;;;;;;;9.45;7.33;;;;;;;30.30;30.83;101857.27;1392902;102;21187;-48